sensor_id;sensor_type;location;lat;lon;timestamp;pressure;altitude;pressure_sealevel;temperature;humidity
21706;BME280;11014;53.076;18.208;2022-11-18T00:02:19;100505.44;;;0.87;62.29
21706;BME280;11014;53.076;18.208;2022-11-18T00:04:48;100494.03;;;0.86;62.46
21706;BME280;11014;53.076;18.208;2022-11-18T00:07:16;100492.38;;;0.85;62.36
21706;BME280;11014;53.076;18.208;2022-11-18T00:09:45;100487.91;;;0.86;62.58
21706;BME280;11014;53.076;18.208;2022-11-18T00:12:13;100486.09;;;0.86;62.50
21706;BME280;11014;53.076;18.208;2022-11-18T00:15:00;100492.22;;;0.87;62.58
21706;BME280;11014;53.076;18.208;2022-11-18T00:17:31;100485.13;;;0.87;62.53
21706;BME280;11014;53.076;18.208;2022-11-18T00:19:59;100474.53;;;0.87;62.63
21706;BME280;11014;53.076;18.208;2022-11-18T00:22:28;100479.66;;;0.89;62.57
21706;BME280;11014;53.076;18.208;2022-11-18T00:24:57;100476.16;;;0.88;62.56
21706;BME280;11014;53.076;18.208;2022-11-18T00:27:29;100474.53;;;0.87;62.48
21706;BME280;11014;53.076;18.208;2022-11-18T00:29:58;100471.22;;;0.85;62.53
21706;BME280;11014;53.076;18.208;2022-11-18T00:32:27;100470.38;;;0.85;62.51
21706;BME280;11014;53.076;18.208;2022-11-18T00:34:55;100476.84;;;0.82;62.44
21706;BME280;11014;53.076;18.208;2022-11-18T00:37:24;100477.03;;;0.81;62.68
21706;BME280;11014;53.076;18.208;2022-11-18T00:39:52;100476.38;;;0.79;62.82
21706;BME280;11014;53.076;18.208;2022-11-18T00:42:21;100482.50;;;0.79;62.55
21706;BME280;11014;53.076;18.208;2022-11-18T00:45:10;100481.78;;;0.85;62.68
21706;BME280;11014;53.076;18.208;2022-11-18T00:47:38;100475.81;;;0.91;62.84
21706;BME280;11014;53.076;18.208;2022-11-18T00:50:07;100477.09;;;1.03;63.03
21706;BME280;11014;53.076;18.208;2022-11-18T00:52:35;100475.38;;;1.18;63.01
21706;BME280;11014;53.076;18.208;2022-11-18T00:55:05;100484.38;;;1.32;63.24
21706;BME280;11014;53.076;18.208;2022-11-18T00:57:33;100483.47;;;1.48;63.00
21706;BME280;11014;53.076;18.208;2022-11-18T01:00:02;100473.94;;;1.61;62.96
21706;BME280;11014;53.076;18.208;2022-11-18T01:02:31;100477.00;;;1.73;63.03
21706;BME280;11014;53.076;18.208;2022-11-18T01:04:59;100473.94;;;1.84;63.11
21706;BME280;11014;53.076;18.208;2022-11-18T01:07:28;100479.00;;;1.94;63.13
21706;BME280;11014;53.076;18.208;2022-11-18T01:09:56;100474.28;;;2.04;63.00
21706;BME280;11014;53.076;18.208;2022-11-18T01:12:25;100475.88;;;2.13;62.72
21706;BME280;11014;53.076;18.208;2022-11-18T01:15:16;100478.88;;;2.24;62.59
21706;BME280;11014;53.076;18.208;2022-11-18T01:17:44;100476.34;;;2.31;62.63
21706;BME280;11014;53.076;18.208;2022-11-18T01:20:14;100481.75;;;2.37;62.80
21706;BME280;11014;53.076;18.208;2022-11-18T01:22:42;100490.00;;;2.43;62.71
21706;BME280;11014;53.076;18.208;2022-11-18T01:25:11;100492.91;;;2.48;63.14
21706;BME280;11014;53.076;18.208;2022-11-18T01:27:40;100479.31;;;2.51;63.06
21706;BME280;11014;53.076;18.208;2022-11-18T01:30:08;100479.75;;;2.54;62.90
21706;BME280;11014;53.076;18.208;2022-11-18T01:32:37;100480.03;;;2.59;62.89
21706;BME280;11014;53.076;18.208;2022-11-18T01:35:06;100478.66;;;2.63;63.26
21706;BME280;11014;53.076;18.208;2022-11-18T01:37:34;100482.59;;;2.67;62.98
21706;BME280;11014;53.076;18.208;2022-11-18T01:40:05;100479.41;;;2.72;63.10
21706;BME280;11014;53.076;18.208;2022-11-18T01:42:34;100478.66;;;2.78;63.06
21706;BME280;11014;53.076;18.208;2022-11-18T01:45:16;100476.66;;;2.80;63.03
21706;BME280;11014;53.076;18.208;2022-11-18T01:47:51;100485.25;;;2.82;63.05
21706;BME280;11014;53.076;18.208;2022-11-18T01:50:22;100484.59;;;2.80;63.42
21706;BME280;11014;53.076;18.208;2022-11-18T01:52:52;100488.72;;;2.82;63.23
21706;BME280;11014;53.076;18.208;2022-11-18T01:55:26;100490.19;;;2.85;63.35
21706;BME280;11014;53.076;18.208;2022-11-18T01:58:06;100485.59;;;2.93;63.42
21706;BME280;11014;53.076;18.208;2022-11-18T02:00:36;100489.09;;;2.94;63.04
21706;BME280;11014;53.076;18.208;2022-11-18T02:03:05;100484.78;;;2.93;63.17
21706;BME280;11014;53.076;18.208;2022-11-18T02:05:35;100480.13;;;2.95;63.42
21706;BME280;11014;53.076;18.208;2022-11-18T02:08:05;100493.41;;;2.95;63.50
21706;BME280;11014;53.076;18.208;2022-11-18T02:10:34;100492.00;;;2.99;63.26
21706;BME280;11014;53.076;18.208;2022-11-18T02:13:03;100485.50;;;3.02;63.59
21706;BME280;11014;53.076;18.208;2022-11-18T02:18:45;100489.88;;;3.09;63.42
21706;BME280;11014;53.076;18.208;2022-11-18T02:27:20;100484.31;;;3.19;63.51
21706;BME280;11014;53.076;18.208;2022-11-18T02:30:15;100487.13;;;3.17;63.57
21706;BME280;11014;53.076;18.208;2022-11-18T02:32:58;100498.41;;;3.19;63.31
21706;BME280;11014;53.076;18.208;2022-11-18T02:35:33;100499.66;;;3.23;63.30
21706;BME280;11014;53.076;18.208;2022-11-18T02:38:13;100490.69;;;3.24;63.63
21706;BME280;11014;53.076;18.208;2022-11-18T02:40:46;100493.97;;;3.26;63.42
21706;BME280;11014;53.076;18.208;2022-11-18T02:46:14;100486.28;;;3.31;63.58
21706;BME280;11014;53.076;18.208;2022-11-18T02:48:48;100482.63;;;3.32;63.50
21706;BME280;11014;53.076;18.208;2022-11-18T02:51:22;100483.88;;;3.36;63.42
21706;BME280;11014;53.076;18.208;2022-11-18T02:53:54;100485.53;;;3.37;63.43
21706;BME280;11014;53.076;18.208;2022-11-18T02:56:25;100490.47;;;3.40;63.40
21706;BME280;11014;53.076;18.208;2022-11-18T02:58:54;100488.06;;;3.45;63.48
21706;BME280;11014;53.076;18.208;2022-11-18T03:01:28;100491.34;;;3.47;63.44
21706;BME280;11014;53.076;18.208;2022-11-18T03:03:58;100487.34;;;3.51;63.30
21706;BME280;11014;53.076;18.208;2022-11-18T03:06:31;100488.97;;;3.52;63.39
21706;BME280;11014;53.076;18.208;2022-11-18T03:09:11;100487.78;;;3.55;63.15
21706;BME280;11014;53.076;18.208;2022-11-18T03:20:06;100491.69;;;3.59;62.91
21706;BME280;11014;53.076;18.208;2022-11-18T03:22:43;100493.16;;;3.62;62.95
21706;BME280;11014;53.076;18.208;2022-11-18T03:25:28;100491.53;;;3.61;63.26
21706;BME280;11014;53.076;18.208;2022-11-18T03:31:13;100488.66;;;3.62;62.77
21706;BME280;11014;53.076;18.208;2022-11-18T03:33:46;100485.19;;;3.62;62.58
21706;BME280;11014;53.076;18.208;2022-11-18T03:36:20;100482.53;;;3.62;62.75
21706;BME280;11014;53.076;18.208;2022-11-18T03:38:55;100489.66;;;3.61;62.68
21706;BME280;11014;53.076;18.208;2022-11-18T03:41:30;100496.84;;;3.61;62.30
21706;BME280;11014;53.076;18.208;2022-11-18T03:44:17;100492.53;;;3.59;62.35
21706;BME280;11014;53.076;18.208;2022-11-18T03:46:50;100493.59;;;3.65;62.19
21706;BME280;11014;53.076;18.208;2022-11-18T03:49:28;100497.25;;;3.64;62.29
21706;BME280;11014;53.076;18.208;2022-11-18T03:52:05;100491.53;;;3.61;61.94
21706;BME280;11014;53.076;18.208;2022-11-18T03:54:37;100498.66;;;3.60;61.31
21706;BME280;11014;53.076;18.208;2022-11-18T03:57:12;100496.19;;;3.58;61.30
21706;BME280;11014;53.076;18.208;2022-11-18T03:59:48;100498.00;;;3.58;61.24
21706;BME280;11014;53.076;18.208;2022-11-18T04:02:25;100489.88;;;3.59;61.08
21706;BME280;11014;53.076;18.208;2022-11-18T04:04:56;100496.19;;;3.58;60.61
21706;BME280;11014;53.076;18.208;2022-11-18T04:07:55;100497.22;;;3.57;60.28
21706;BME280;11014;53.076;18.208;2022-11-18T04:10:34;100496.56;;;3.55;59.89
21706;BME280;11014;53.076;18.208;2022-11-18T04:13:14;100494.94;;;3.54;59.56
21706;BME280;11014;53.076;18.208;2022-11-18T04:15:44;100494.28;;;3.52;59.14
21706;BME280;11014;53.076;18.208;2022-11-18T04:18:13;100489.72;;;3.46;58.85
21706;BME280;11014;53.076;18.208;2022-11-18T04:20:43;100494.31;;;3.38;58.60
21706;BME280;11014;53.076;18.208;2022-11-18T04:23:11;100488.03;;;3.24;57.90
21706;BME280;11014;53.076;18.208;2022-11-18T04:25:39;100491.53;;;3.10;57.74
21706;BME280;11014;53.076;18.208;2022-11-18T04:28:09;100492.00;;;2.99;58.09
21706;BME280;11014;53.076;18.208;2022-11-18T04:30:37;100494.75;;;2.91;57.91
21706;BME280;11014;53.076;18.208;2022-11-18T04:33:05;100500.78;;;2.85;57.95
21706;BME280;11014;53.076;18.208;2022-11-18T04:35:34;100499.06;;;2.77;58.09
21706;BME280;11014;53.076;18.208;2022-11-18T04:38:02;100501.81;;;2.69;58.17
21706;BME280;11014;53.076;18.208;2022-11-18T04:40:31;100501.88;;;2.61;58.24
21706;BME280;11014;53.076;18.208;2022-11-18T04:43:00;100504.44;;;2.55;58.20
21706;BME280;11014;53.076;18.208;2022-11-18T04:45:28;100502.44;;;2.57;58.30
21706;BME280;11014;53.076;18.208;2022-11-18T04:47:57;100500.06;;;2.62;58.43
21706;BME280;11014;53.076;18.208;2022-11-18T04:50:30;100512.56;;;2.68;58.67
21706;BME280;11014;53.076;18.208;2022-11-18T04:52:59;100508.38;;;2.73;58.65
21706;BME280;11014;53.076;18.208;2022-11-18T04:55:34;100506.47;;;2.82;58.60
21706;BME280;11014;53.076;18.208;2022-11-18T04:58:03;100511.03;;;2.88;58.28
21706;BME280;11014;53.076;18.208;2022-11-18T05:00:32;100507.66;;;2.94;58.33
21706;BME280;11014;53.076;18.208;2022-11-18T05:03:00;100506.94;;;3.00;58.25
21706;BME280;11014;53.076;18.208;2022-11-18T05:05:29;100504.72;;;3.04;58.41
21706;BME280;11014;53.076;18.208;2022-11-18T05:07:57;100510.13;;;3.10;58.18
21706;BME280;11014;53.076;18.208;2022-11-18T05:10:26;100509.75;;;3.13;58.22
21706;BME280;11014;53.076;18.208;2022-11-18T05:12:54;100509.38;;;3.16;58.19
21706;BME280;11014;53.076;18.208;2022-11-18T05:15:23;100518.59;;;3.20;58.34
21706;BME280;11014;53.076;18.208;2022-11-18T05:17:51;100510.91;;;3.25;58.33
21706;BME280;11014;53.076;18.208;2022-11-18T05:20:20;100514.22;;;3.27;58.23
21706;BME280;11014;53.076;18.208;2022-11-18T05:22:48;100514.47;;;3.32;58.41
21706;BME280;11014;53.076;18.208;2022-11-18T05:25:17;100513.75;;;3.38;57.95
21706;BME280;11014;53.076;18.208;2022-11-18T05:27:46;100523.59;;;3.44;58.03
21706;BME280;11014;53.076;18.208;2022-11-18T05:30:39;100515.25;;;3.47;57.92
21706;BME280;11014;53.076;18.208;2022-11-18T05:33:08;100507.38;;;3.54;57.79
21706;BME280;11014;53.076;18.208;2022-11-18T05:35:40;100510.84;;;3.54;57.87
21706;BME280;11014;53.076;18.208;2022-11-18T05:38:09;100518.09;;;3.61;57.89
21706;BME280;11014;53.076;18.208;2022-11-18T05:40:37;100515.69;;;3.66;57.68
21706;BME280;11014;53.076;18.208;2022-11-18T05:43:07;100515.31;;;3.69;57.74
21706;BME280;11014;53.076;18.208;2022-11-18T05:45:39;100517.38;;;3.73;57.58
21706;BME280;11014;53.076;18.208;2022-11-18T05:48:08;100527.63;;;3.76;57.43
21706;BME280;11014;53.076;18.208;2022-11-18T05:50:37;100522.13;;;3.78;57.26
21706;BME280;11014;53.076;18.208;2022-11-18T05:53:05;100529.09;;;3.79;57.50
21706;BME280;11014;53.076;18.208;2022-11-18T05:55:54;100524.63;;;3.79;57.42
21706;BME280;11014;53.076;18.208;2022-11-18T05:58:24;100531.38;;;3.82;57.14
21706;BME280;11014;53.076;18.208;2022-11-18T06:00:54;100521.97;;;3.79;57.00
21706;BME280;11014;53.076;18.208;2022-11-18T06:03:25;100532.38;;;3.81;57.27
21706;BME280;11014;53.076;18.208;2022-11-18T06:06:00;100526.06;;;3.82;57.28
21706;BME280;11014;53.076;18.208;2022-11-18T06:08:36;100529.34;;;3.84;57.13
21706;BME280;11014;53.076;18.208;2022-11-18T06:11:09;100522.00;;;3.86;57.36
21706;BME280;11014;53.076;18.208;2022-11-18T06:13:47;100524.91;;;3.91;57.04
21706;BME280;11014;53.076;18.208;2022-11-18T06:16:20;100523.75;;;3.93;57.24
21706;BME280;11014;53.076;18.208;2022-11-18T06:18:50;100533.97;;;3.96;56.87
21706;BME280;11014;53.076;18.208;2022-11-18T06:21:45;100534.78;;;3.97;56.75
21706;BME280;11014;53.076;18.208;2022-11-18T06:24:15;100531.13;;;3.98;57.06
21706;BME280;11014;53.076;18.208;2022-11-18T06:26:45;100543.00;;;4.02;57.09
21706;BME280;11014;53.076;18.208;2022-11-18T06:29:16;100542.84;;;4.03;56.84
21706;BME280;11014;53.076;18.208;2022-11-18T06:31:55;100534.66;;;4.05;56.73
21706;BME280;11014;53.076;18.208;2022-11-18T06:34:24;100542.63;;;4.05;56.83
21706;BME280;11014;53.076;18.208;2022-11-18T06:36:53;100541.00;;;4.04;56.71
21706;BME280;11014;53.076;18.208;2022-11-18T06:39:22;100543.41;;;3.99;56.57
21706;BME280;11014;53.076;18.208;2022-11-18T06:41:53;100549.47;;;3.93;56.69
21706;BME280;11014;53.076;18.208;2022-11-18T06:44:22;100548.16;;;3.82;56.54
21706;BME280;11014;53.076;18.208;2022-11-18T06:46:50;100556.16;;;3.68;56.81
21706;BME280;11014;53.076;18.208;2022-11-18T06:49:26;100548.03;;;3.54;56.80
21706;BME280;11014;53.076;18.208;2022-11-18T06:51:55;100558.94;;;3.45;57.00
21706;BME280;11014;53.076;18.208;2022-11-18T06:54:23;100559.88;;;3.37;57.06
21706;BME280;11014;53.076;18.208;2022-11-18T06:56:53;100557.31;;;3.29;56.87
21706;BME280;11014;53.076;18.208;2022-11-18T06:59:21;100561.72;;;3.22;57.12
21706;BME280;11014;53.076;18.208;2022-11-18T07:01:51;100569.59;;;3.16;57.10
21706;BME280;11014;53.076;18.208;2022-11-18T07:04:21;100572.16;;;3.09;57.53
21706;BME280;11014;53.076;18.208;2022-11-18T07:06:49;100568.84;;;3.07;57.41
21706;BME280;11014;53.076;18.208;2022-11-18T07:09:18;100564.19;;;3.09;57.78
21706;BME280;11014;53.076;18.208;2022-11-18T07:11:46;100571.69;;;3.20;57.71
21706;BME280;11014;53.076;18.208;2022-11-18T07:14:16;100569.59;;;3.30;57.93
21706;BME280;11014;53.076;18.208;2022-11-18T07:16:45;100567.28;;;3.42;58.05
21706;BME280;11014;53.076;18.208;2022-11-18T07:19:15;100567.00;;;3.51;57.72
21706;BME280;11014;53.076;18.208;2022-11-18T07:21:44;100565.88;;;3.61;57.76
21706;BME280;11014;53.076;18.208;2022-11-18T07:24:14;100563.13;;;3.69;57.46
21706;BME280;11014;53.076;18.208;2022-11-18T07:26:42;100574.53;;;3.69;57.50
21706;BME280;11014;53.076;18.208;2022-11-18T07:29:11;100575.31;;;3.63;57.25
21706;BME280;11014;53.076;18.208;2022-11-18T07:31:39;100576.22;;;3.55;57.26
21706;BME280;11014;53.076;18.208;2022-11-18T07:34:08;100576.31;;;3.47;57.32
21706;BME280;11014;53.076;18.208;2022-11-18T07:36:37;100581.63;;;3.47;57.49
21706;BME280;11014;53.076;18.208;2022-11-18T07:39:06;100583.31;;;3.48;57.79
21706;BME280;11014;53.076;18.208;2022-11-18T07:41:35;100579.72;;;3.56;57.45
21706;BME280;11014;53.076;18.208;2022-11-18T07:44:04;100577.69;;;3.58;57.62
21706;BME280;11014;53.076;18.208;2022-11-18T07:46:36;100581.16;;;3.58;57.46
21706;BME280;11014;53.076;18.208;2022-11-18T07:49:06;100576.50;;;3.61;57.56
21706;BME280;11014;53.076;18.208;2022-11-18T07:51:37;100578.13;;;3.62;57.63
21706;BME280;11014;53.076;18.208;2022-11-18T07:54:12;100575.38;;;3.70;57.70
21706;BME280;11014;53.076;18.208;2022-11-18T07:56:42;100571.59;;;3.79;57.75
21706;BME280;11014;53.076;18.208;2022-11-18T07:59:11;100573.53;;;3.85;57.99
21706;BME280;11014;53.076;18.208;2022-11-18T08:01:40;100571.56;;;3.93;58.01
21706;BME280;11014;53.076;18.208;2022-11-18T08:04:11;100570.63;;;4.01;57.64
21706;BME280;11014;53.076;18.208;2022-11-18T08:06:40;100578.47;;;4.09;57.87
21706;BME280;11014;53.076;18.208;2022-11-18T08:09:09;100575.84;;;4.15;57.81
21706;BME280;11014;53.076;18.208;2022-11-18T08:11:38;100566.97;;;4.23;57.53
21706;BME280;11014;53.076;18.208;2022-11-18T08:14:09;100579.28;;;4.31;57.38
21706;BME280;11014;53.076;18.208;2022-11-18T08:16:37;100566.25;;;4.36;57.25
21706;BME280;11014;53.076;18.208;2022-11-18T08:19:06;100573.25;;;4.43;57.48
21706;BME280;11014;53.076;18.208;2022-11-18T08:21:34;100577.81;;;4.49;57.53
21706;BME280;11014;53.076;18.208;2022-11-18T08:24:03;100574.56;;;4.54;57.15
21706;BME280;11014;53.076;18.208;2022-11-18T08:26:31;100572.19;;;4.59;57.09
21706;BME280;11014;53.076;18.208;2022-11-18T08:29:00;100574.25;;;4.63;56.89
21706;BME280;11014;53.076;18.208;2022-11-18T08:31:29;100580.81;;;4.67;57.17
21706;BME280;11014;53.076;18.208;2022-11-18T08:34:00;100578.44;;;4.79;57.37
21706;BME280;11014;53.076;18.208;2022-11-18T08:36:32;100576.06;;;4.91;57.38
21706;BME280;11014;53.076;18.208;2022-11-18T08:39:04;100583.53;;;5.02;57.11
21706;BME280;11014;53.076;18.208;2022-11-18T08:41:41;100578.19;;;5.02;56.92
21706;BME280;11014;53.076;18.208;2022-11-18T08:44:12;100581.94;;;5.07;56.94
21706;BME280;11014;53.076;18.208;2022-11-18T08:46:41;100585.66;;;5.13;56.85
21706;BME280;11014;53.076;18.208;2022-11-18T08:49:12;100581.78;;;5.22;56.95
21706;BME280;11014;53.076;18.208;2022-11-18T08:51:40;100580.38;;;5.26;56.57
21706;BME280;11014;53.076;18.208;2022-11-18T08:54:09;100577.13;;;5.30;56.76
21706;BME280;11014;53.076;18.208;2022-11-18T08:56:38;100583.28;;;5.31;56.39
21706;BME280;11014;53.076;18.208;2022-11-18T08:59:07;100584.16;;;5.38;56.46
21706;BME280;11014;53.076;18.208;2022-11-18T09:01:36;100580.44;;;5.39;56.40
21706;BME280;11014;53.076;18.208;2022-11-18T09:04:05;100590.31;;;5.45;56.42
21706;BME280;11014;53.076;18.208;2022-11-18T09:06:33;100585.59;;;5.47;56.14
21706;BME280;11014;53.076;18.208;2022-11-18T09:09:02;100597.31;;;5.46;56.19
21706;BME280;11014;53.076;18.208;2022-11-18T09:11:45;100585.38;;;5.42;55.97
21706;BME280;11014;53.076;18.208;2022-11-18T09:14:13;100596.03;;;5.42;55.81
21706;BME280;11014;53.076;18.208;2022-11-18T09:17:02;100587.66;;;5.45;55.87
21706;BME280;11014;53.076;18.208;2022-11-18T09:19:30;100588.66;;;5.44;55.64
21706;BME280;11014;53.076;18.208;2022-11-18T09:22:14;100588.81;;;5.36;55.47
21706;BME280;11014;53.076;18.208;2022-11-18T09:24:43;100588.22;;;5.34;55.52
21706;BME280;11014;53.076;18.208;2022-11-18T09:27:13;100591.25;;;5.31;55.41
21706;BME280;11014;53.076;18.208;2022-11-18T09:29:44;100585.31;;;5.29;55.38
21706;BME280;11014;53.076;18.208;2022-11-18T09:32:13;100590.66;;;5.29;55.38
21706;BME280;11014;53.076;18.208;2022-11-18T09:34:42;100579.16;;;5.28;55.19
21706;BME280;11014;53.076;18.208;2022-11-18T09:37:11;100575.50;;;5.29;54.90
21706;BME280;11014;53.076;18.208;2022-11-18T09:39:40;100580.44;;;5.32;54.48
21706;BME280;11014;53.076;18.208;2022-11-18T09:42:22;100582.50;;;5.37;54.30
21706;BME280;11014;53.076;18.208;2022-11-18T09:45:09;100575.72;;;5.41;54.13
21706;BME280;11014;53.076;18.208;2022-11-18T09:47:43;100586.66;;;5.46;53.85
21706;BME280;11014;53.076;18.208;2022-11-18T09:50:16;100580.94;;;5.49;53.49
21706;BME280;11014;53.076;18.208;2022-11-18T09:55:46;100578.50;;;5.61;52.63
21706;BME280;11014;53.076;18.208;2022-11-18T09:58:41;100580.59;;;5.65;52.24
21706;BME280;11014;53.076;18.208;2022-11-18T10:01:15;100579.75;;;5.71;51.98
21706;BME280;11014;53.076;18.208;2022-11-18T10:03:45;100579.34;;;5.74;51.68
21706;BME280;11014;53.076;18.208;2022-11-18T10:06:20;100580.63;;;5.78;51.58
21706;BME280;11014;53.076;18.208;2022-11-18T10:11:33;100573.25;;;5.80;50.77
21706;BME280;11014;53.076;18.208;2022-11-18T10:17:24;100575.34;;;5.91;50.52
21706;BME280;11014;53.076;18.208;2022-11-18T10:20:31;100571.88;;;5.97;50.86
21706;BME280;11014;53.076;18.208;2022-11-18T10:25:46;100572.50;;;6.00;50.36
21706;BME280;11014;53.076;18.208;2022-11-18T10:28:26;100577.44;;;6.03;50.08
21706;BME280;11014;53.076;18.208;2022-11-18T10:31:10;100571.69;;;6.06;49.88
21706;BME280;11014;53.076;18.208;2022-11-18T10:33:39;100576.00;;;6.07;49.66
21706;BME280;11014;53.076;18.208;2022-11-18T10:38:45;100576.19;;;6.05;49.81
21706;BME280;11014;53.076;18.208;2022-11-18T10:41:19;100572.94;;;6.03;49.15
21706;BME280;11014;53.076;18.208;2022-11-18T10:43:54;100575.38;;;6.05;49.16
21706;BME280;11014;53.076;18.208;2022-11-18T10:46:35;100581.31;;;6.07;49.24
21706;BME280;11014;53.076;18.208;2022-11-18T10:51:43;100581.78;;;6.17;48.95
21706;BME280;11014;53.076;18.208;2022-11-18T10:54:23;100589.59;;;6.25;48.44
21706;BME280;11014;53.076;18.208;2022-11-18T10:56:55;100585.06;;;6.32;48.40
21706;BME280;11014;53.076;18.208;2022-11-18T10:59:40;100587.75;;;6.38;47.99
21706;BME280;11014;53.076;18.208;2022-11-18T11:02:24;100595.13;;;6.43;47.76
21706;BME280;11014;53.076;18.208;2022-11-18T11:05:01;100593.50;;;6.42;47.45
21706;BME280;11014;53.076;18.208;2022-11-18T11:07:34;100599.69;;;6.55;47.49
21706;BME280;11014;53.076;18.208;2022-11-18T11:12:58;100593.50;;;6.55;47.40
21706;BME280;11014;53.076;18.208;2022-11-18T11:15:38;100592.16;;;7.30;47.13
21706;BME280;11014;53.076;18.208;2022-11-18T11:18:22;100583.53;;;8.54;44.83
21706;BME280;11014;53.076;18.208;2022-11-18T11:21:11;100593.84;;;9.73;42.81
21706;BME280;11014;53.076;18.208;2022-11-18T11:23:41;100592.69;;;10.46;41.51
21706;BME280;11014;53.076;18.208;2022-11-18T11:26:57;100584.84;;;10.45;40.49
21706;BME280;11014;53.076;18.208;2022-11-18T11:32:53;100593.13;;;10.43;39.89
21706;BME280;11014;53.076;18.208;2022-11-18T11:35:33;100583.53;;;9.58;41.03
21706;BME280;11014;53.076;18.208;2022-11-18T11:38:16;100581.84;;;8.84;41.62
21706;BME280;11014;53.076;18.208;2022-11-18T11:41:19;100590.75;;;8.54;42.48
21706;BME280;11014;53.076;18.208;2022-11-18T11:43:53;100591.50;;;9.46;41.84
21706;BME280;11014;53.076;18.208;2022-11-18T11:49:17;100590.84;;;9.99;40.20
21706;BME280;11014;53.076;18.208;2022-11-18T11:57:20;100582.66;;;8.36;42.93
21706;BME280;11014;53.076;18.208;2022-11-18T12:00:09;100596.31;;;8.21;43.55
21706;BME280;11014;53.076;18.208;2022-11-18T12:05:36;100598.50;;;7.99;44.20
21706;BME280;11014;53.076;18.208;2022-11-18T12:08:20;100600.59;;;7.84;43.76
21706;BME280;11014;53.076;18.208;2022-11-18T12:11:13;100602.75;;;7.69;44.21
21706;BME280;11014;53.076;18.208;2022-11-18T12:13:47;100606.44;;;7.68;44.20
21706;BME280;11014;53.076;18.208;2022-11-18T12:19:13;100607.97;;;7.95;43.79
21706;BME280;11014;53.076;18.208;2022-11-18T12:24:40;100614.34;;;8.39;43.45
21706;BME280;11014;53.076;18.208;2022-11-18T12:27:57;100623.97;;;9.57;41.87
21706;BME280;11014;53.076;18.208;2022-11-18T12:30:02;100621.69;;;10.67;40.44
21706;BME280;11014;53.076;18.208;2022-11-18T12:32:38;100619.34;;;11.29;39.20
21706;BME280;11014;53.076;18.208;2022-11-18T12:40:38;100617.69;;;12.76;36.61
21706;BME280;11014;53.076;18.208;2022-11-18T12:51:52;100616.59;;;9.52;38.60
21706;BME280;11014;53.076;18.208;2022-11-18T12:54:44;100617.53;;;9.03;39.66
21706;BME280;11014;53.076;18.208;2022-11-18T12:57:22;100620.25;;;8.72;40.24
21706;BME280;11014;53.076;18.208;2022-11-18T12:59:51;100619.38;;;8.53;40.84
21706;BME280;11014;53.076;18.208;2022-11-18T13:02:27;100624.84;;;8.33;40.95
21706;BME280;11014;53.076;18.208;2022-11-18T13:05:09;100627.88;;;8.06;40.91
21706;BME280;11014;53.076;18.208;2022-11-18T13:07:42;100619.97;;;8.30;41.47
21706;BME280;11014;53.076;18.208;2022-11-18T13:10:32;100620.84;;;9.41;40.24
21706;BME280;11014;53.076;18.208;2022-11-18T13:13:02;100610.13;;;10.26;39.19
21706;BME280;11014;53.076;18.208;2022-11-18T13:15:31;100616.00;;;10.87;37.86
21706;BME280;11014;53.076;18.208;2022-11-18T13:18:19;100618.44;;;11.35;37.26
21706;BME280;11014;53.076;18.208;2022-11-18T13:20:56;100616.53;;;11.70;36.59
21706;BME280;11014;53.076;18.208;2022-11-18T13:23:29;100616.66;;;12.04;36.40
21706;BME280;11014;53.076;18.208;2022-11-18T13:26:31;100604.50;;;12.29;35.77
21706;BME280;11014;53.076;18.208;2022-11-18T13:29:33;100611.84;;;12.34;35.40
21706;BME280;11014;53.076;18.208;2022-11-18T13:32:23;100605.75;;;12.55;34.93
21706;BME280;11014;53.076;18.208;2022-11-18T13:35:18;100606.81;;;12.87;35.12
21706;BME280;11014;53.076;18.208;2022-11-18T13:37:51;100605.94;;;13.15;34.60
21706;BME280;11014;53.076;18.208;2022-11-18T13:40:42;100617.09;;;13.40;33.88
21706;BME280;11014;53.076;18.208;2022-11-18T13:43:32;100613.03;;;13.21;33.95
21706;BME280;11014;53.076;18.208;2022-11-18T13:46:04;100624.59;;;12.55;34.52
21706;BME280;11014;53.076;18.208;2022-11-18T13:48:36;100620.97;;;11.76;35.20
21706;BME280;11014;53.076;18.208;2022-11-18T13:51:07;100629.22;;;11.12;35.91
21706;BME280;11014;53.076;18.208;2022-11-18T13:53:37;100638.25;;;10.64;36.88
21706;BME280;11014;53.076;18.208;2022-11-18T13:56:23;100632.19;;;10.28;37.34
21706;BME280;11014;53.076;18.208;2022-11-18T13:58:59;100632.91;;;9.87;38.32
21706;BME280;11014;53.076;18.208;2022-11-18T14:01:46;100633.91;;;9.56;38.68
21706;BME280;11014;53.076;18.208;2022-11-18T14:04:26;100635.13;;;9.35;39.13
21706;BME280;11014;53.076;18.208;2022-11-18T14:07:22;100648.09;;;9.20;39.60
21706;BME280;11014;53.076;18.208;2022-11-18T14:10:00;100639.44;;;8.93;39.64
21706;BME280;11014;53.076;18.208;2022-11-18T14:12:31;100647.25;;;8.70;40.26
21706;BME280;11014;53.076;18.208;2022-11-18T14:15:21;100636.66;;;8.57;40.27
21706;BME280;11014;53.076;18.208;2022-11-18T14:17:58;100647.75;;;8.29;40.68
21706;BME280;11014;53.076;18.208;2022-11-18T14:20:30;100650.09;;;8.06;41.00
21706;BME280;11014;53.076;18.208;2022-11-18T14:26:33;100650.63;;;7.77;41.26
21706;BME280;11014;53.076;18.208;2022-11-18T14:29:15;100661.78;;;7.67;41.77
21706;BME280;11014;53.076;18.208;2022-11-18T14:34:44;100662.44;;;7.43;42.22
21706;BME280;11014;53.076;18.208;2022-11-18T14:37:14;100662.66;;;7.35;42.31
21706;BME280;11014;53.076;18.208;2022-11-18T14:39:53;100667.84;;;7.24;42.58
21706;BME280;11014;53.076;18.208;2022-11-18T14:42:24;100673.19;;;7.17;42.80
21706;BME280;11014;53.076;18.208;2022-11-18T14:44:53;100673.16;;;7.10;43.24
21706;BME280;11014;53.076;18.208;2022-11-18T14:47:26;100663.34;;;7.04;43.49
21706;BME280;11014;53.076;18.208;2022-11-18T14:49:56;100675.63;;;7.05;43.52